sensor_id;sensor_type;location;lat;lon;timestamp;P1;durP1;ratioP1;P2;durP2;ratioP2
7213;SDS011;3648;50.614;13.830;2022-12-13T00:01:26;14.73;;;10.57;;
7213;SDS011;3648;50.614;13.830;2022-12-13T00:03:54;16.37;;;11.27;;
7213;SDS011;3648;50.614;13.830;2022-12-13T00:06:22;16.23;;;10.70;;
7213;SDS011;3648;50.614;13.830;2022-12-13T00:08:49;21.97;;;12.33;;
7213;SDS011;3648;50.614;13.830;2022-12-13T00:11:16;20.10;;;12.03;;
7213;SDS011;3648;50.614;13.830;2022-12-13T00:13:45;19.87;;;12.00;;
7213;SDS011;3648;50.614;13.830;2022-12-13T00:16:13;19.20;;;12.37;;
7213;SDS011;3648;50.614;13.830;2022-12-13T00:18:41;17.57;;;11.97;;
7213;SDS011;3648;50.614;13.830;2022-12-13T00:21:10;21.23;;;12.30;;
7213;SDS011;3648;50.614;13.830;2022-12-13T00:23:38;18.40;;;12.43;;
7213;SDS011;3648;50.614;13.830;2022-12-13T00:26:07;17.60;;;11.20;;
7213;SDS011;3648;50.614;13.830;2022-12-13T00:28:36;16.93;;;11.40;;
7213;SDS011;3648;50.614;13.830;2022-12-13T00:31:05;18.03;;;11.27;;
7213;SDS011;3648;50.614;13.830;2022-12-13T00:33:32;17.60;;;10.93;;
7213;SDS011;3648;50.614;13.830;2022-12-13T00:36:02;19.17;;;12.07;;
7213;SDS011;3648;50.614;13.830;2022-12-13T00:38:29;21.40;;;13.67;;
7213;SDS011;3648;50.614;13.830;2022-12-13T00:40:56;20.57;;;13.23;;
7213;SDS011;3648;50.614;13.830;2022-12-13T00:43:23;19.87;;;12.67;;
7213;SDS011;3648;50.614;13.830;2022-12-13T00:45:50;22.20;;;13.50;;
7213;SDS011;3648;50.614;13.830;2022-12-13T00:48:18;23.37;;;14.30;;
7213;SDS011;3648;50.614;13.830;2022-12-13T00:50:45;21.67;;;14.03;;
7213;SDS011;3648;50.614;13.830;2022-12-13T00:53:12;25.97;;;16.30;;
7213;SDS011;3648;50.614;13.830;2022-12-13T00:55:39;30.07;;;16.47;;
7213;SDS011;3648;50.614;13.830;2022-12-13T00:58:06;27.27;;;15.37;;
7213;SDS011;3648;50.614;13.830;2022-12-13T01:00:33;23.20;;;15.70;;
7213;SDS011;3648;50.614;13.830;2022-12-13T01:03:00;23.83;;;15.07;;
7213;SDS011;3648;50.614;13.830;2022-12-13T01:05:45;25.83;;;15.77;;
7213;SDS011;3648;50.614;13.830;2022-12-13T01:08:13;21.60;;;14.53;;
7213;SDS011;3648;50.614;13.830;2022-12-13T01:10:41;22.00;;;13.47;;
7213;SDS011;3648;50.614;13.830;2022-12-13T01:13:09;21.17;;;12.17;;
7213;SDS011;3648;50.614;13.830;2022-12-13T01:15:38;18.20;;;13.27;;
7213;SDS011;3648;50.614;13.830;2022-12-13T01:18:06;22.73;;;13.63;;
7213;SDS011;3648;50.614;13.830;2022-12-13T01:20:33;22.77;;;13.90;;
7213;SDS011;3648;50.614;13.830;2022-12-13T01:23:01;24.50;;;13.67;;
7213;SDS011;3648;50.614;13.830;2022-12-13T01:25:28;20.43;;;13.53;;
7213;SDS011;3648;50.614;13.830;2022-12-13T01:27:57;20.43;;;13.47;;
7213;SDS011;3648;50.614;13.830;2022-12-13T01:30:24;19.47;;;13.40;;
7213;SDS011;3648;50.614;13.830;2022-12-13T01:32:51;21.73;;;13.73;;
7213;SDS011;3648;50.614;13.830;2022-12-13T01:35:18;21.40;;;13.57;;
7213;SDS011;3648;50.614;13.830;2022-12-13T01:37:45;19.73;;;13.00;;
7213;SDS011;3648;50.614;13.830;2022-12-13T01:40:13;25.07;;;14.53;;
7213;SDS011;3648;50.614;13.830;2022-12-13T01:42:40;21.43;;;14.27;;
7213;SDS011;3648;50.614;13.830;2022-12-13T01:45:21;24.03;;;14.10;;
7213;SDS011;3648;50.614;13.830;2022-12-13T01:47:50;20.73;;;14.47;;
7213;SDS011;3648;50.614;13.830;2022-12-13T01:50:22;23.47;;;14.03;;
7213;SDS011;3648;50.614;13.830;2022-12-13T01:52:53;22.93;;;14.27;;
7213;SDS011;3648;50.614;13.830;2022-12-13T01:55:23;19.90;;;11.83;;
7213;SDS011;3648;50.614;13.830;2022-12-13T01:57:53;17.93;;;11.83;;
7213;SDS011;3648;50.614;13.830;2022-12-13T02:00:23;16.83;;;11.30;;
7213;SDS011;3648;50.614;13.830;2022-12-13T02:02:51;19.20;;;11.27;;
7213;SDS011;3648;50.614;13.830;2022-12-13T02:05:21;17.07;;;11.57;;
7213;SDS011;3648;50.614;13.830;2022-12-13T02:07:52;17.27;;;11.67;;
7213;SDS011;3648;50.614;13.830;2022-12-13T02:10:20;18.07;;;11.80;;
7213;SDS011;3648;50.614;13.830;2022-12-13T02:12:49;18.53;;;11.27;;
7213;SDS011;3648;50.614;13.830;2022-12-13T02:15:17;16.77;;;11.67;;
7213;SDS011;3648;50.614;13.830;2022-12-13T02:17:59;17.20;;;11.47;;
7213;SDS011;3648;50.614;13.830;2022-12-13T02:20:48;18.13;;;12.27;;
7213;SDS011;3648;50.614;13.830;2022-12-13T02:23:33;19.77;;;13.00;;
7213;SDS011;3648;50.614;13.830;2022-12-13T02:29:39;19.03;;;12.77;;
7213;SDS011;3648;50.614;13.830;2022-12-13T02:32:29;22.27;;;13.50;;
7213;SDS011;3648;50.614;13.830;2022-12-13T02:35:02;25.53;;;14.77;;
7213;SDS011;3648;50.614;13.830;2022-12-13T02:37:36;19.87;;;13.27;;
7213;SDS011;3648;50.614;13.830;2022-12-13T02:40:15;15.57;;;11.40;;
7213;SDS011;3648;50.614;13.830;2022-12-13T02:42:51;19.67;;;12.80;;
7213;SDS011;3648;50.614;13.830;2022-12-13T02:45:25;17.63;;;11.57;;
7213;SDS011;3648;50.614;13.830;2022-12-13T02:47:57;16.77;;;12.07;;
7213;SDS011;3648;50.614;13.830;2022-12-13T02:50:27;17.77;;;11.53;;
7213;SDS011;3648;50.614;13.830;2022-12-13T02:52:55;18.33;;;11.23;;
7213;SDS011;3648;50.614;13.830;2022-12-13T02:55:24;20.63;;;12.30;;
7213;SDS011;3648;50.614;13.830;2022-12-13T02:57:51;17.63;;;11.67;;
7213;SDS011;3648;50.614;13.830;2022-12-13T03:00:19;16.60;;;10.93;;
7213;SDS011;3648;50.614;13.830;2022-12-13T03:02:51;16.87;;;10.70;;
7213;SDS011;3648;50.614;13.830;2022-12-13T03:05:29;16.50;;;10.93;;
7213;SDS011;3648;50.614;13.830;2022-12-13T03:08:24;17.53;;;11.33;;
7213;SDS011;3648;50.614;13.830;2022-12-13T03:10:58;15.00;;;10.30;;
7213;SDS011;3648;50.614;13.830;2022-12-13T03:13:32;18.07;;;11.40;;
7213;SDS011;3648;50.614;13.830;2022-12-13T03:16:18;18.20;;;11.10;;
7213;SDS011;3648;50.614;13.830;2022-12-13T03:18:52;16.27;;;10.90;;
7213;SDS011;3648;50.614;13.830;2022-12-13T03:21:22;14.27;;;9.67;;
7213;SDS011;3648;50.614;13.830;2022-12-13T03:23:49;17.40;;;10.70;;
7213;SDS011;3648;50.614;13.830;2022-12-13T03:26:17;14.20;;;9.93;;
7213;SDS011;3648;50.614;13.830;2022-12-13T03:28:46;13.33;;;9.70;;
7213;SDS011;3648;50.614;13.830;2022-12-13T03:31:13;19.13;;;12.23;;
7213;SDS011;3648;50.614;13.830;2022-12-13T03:33:40;28.27;;;16.43;;
7213;SDS011;3648;50.614;13.830;2022-12-13T03:36:09;21.20;;;12.63;;
7213;SDS011;3648;50.614;13.830;2022-12-13T03:38:36;21.20;;;12.67;;
7213;SDS011;3648;50.614;13.830;2022-12-13T03:41:06;27.60;;;16.07;;
7213;SDS011;3648;50.614;13.830;2022-12-13T03:43:35;24.07;;;14.00;;
7213;SDS011;3648;50.614;13.830;2022-12-13T03:46:02;18.57;;;12.03;;
7213;SDS011;3648;50.614;13.830;2022-12-13T03:48:29;18.27;;;11.87;;
7213;SDS011;3648;50.614;13.830;2022-12-13T03:50:56;15.33;;;11.37;;
7213;SDS011;3648;50.614;13.830;2022-12-13T03:53:24;14.53;;;10.10;;
7213;SDS011;3648;50.614;13.830;2022-12-13T03:55:52;16.10;;;10.13;;
7213;SDS011;3648;50.614;13.830;2022-12-13T03:58:18;16.80;;;10.47;;
7213;SDS011;3648;50.614;13.830;2022-12-13T04:00:46;15.40;;;10.83;;
7213;SDS011;3648;50.614;13.830;2022-12-13T04:03:13;17.33;;;11.20;;
7213;SDS011;3648;50.614;13.830;2022-12-13T04:05:40;15.27;;;10.83;;
7213;SDS011;3648;50.614;13.830;2022-12-13T04:08:07;14.40;;;9.80;;
7213;SDS011;3648;50.614;13.830;2022-12-13T04:10:36;18.47;;;10.40;;
7213;SDS011;3648;50.614;13.830;2022-12-13T04:13:03;18.93;;;10.17;;
7213;SDS011;3648;50.614;13.830;2022-12-13T04:15:47;24.50;;;11.90;;
7213;SDS011;3648;50.614;13.830;2022-12-13T04:18:14;20.63;;;11.87;;
7213;SDS011;3648;50.614;13.830;2022-12-13T04:20:42;28.23;;;16.93;;
7213;SDS011;3648;50.614;13.830;2022-12-13T04:23:10;33.60;;;19.83;;
7213;SDS011;3648;50.614;13.830;2022-12-13T04:25:38;24.20;;;15.67;;
7213;SDS011;3648;50.614;13.830;2022-12-13T04:28:06;27.00;;;16.27;;
7213;SDS011;3648;50.614;13.830;2022-12-13T04:30:33;43.70;;;24.73;;
7213;SDS011;3648;50.614;13.830;2022-12-13T04:33:01;26.97;;;15.00;;
7213;SDS011;3648;50.614;13.830;2022-12-13T04:35:28;25.77;;;14.30;;
7213;SDS011;3648;50.614;13.830;2022-12-13T04:37:55;34.60;;;16.93;;
7213;SDS011;3648;50.614;13.830;2022-12-13T04:40:22;49.07;;;22.80;;
7213;SDS011;3648;50.614;13.830;2022-12-13T04:42:51;58.83;;;28.27;;
7213;SDS011;3648;50.614;13.830;2022-12-13T04:45:19;53.00;;;25.60;;
7213;SDS011;3648;50.614;13.830;2022-12-13T04:47:47;35.43;;;18.47;;
7213;SDS011;3648;50.614;13.830;2022-12-13T04:50:14;28.40;;;16.80;;
7213;SDS011;3648;50.614;13.830;2022-12-13T04:52:41;30.33;;;16.57;;
7213;SDS011;3648;50.614;13.830;2022-12-13T04:55:09;26.73;;;16.43;;
7213;SDS011;3648;50.614;13.830;2022-12-13T04:57:36;24.57;;;14.93;;
7213;SDS011;3648;50.614;13.830;2022-12-13T05:00:05;23.73;;;15.10;;
7213;SDS011;3648;50.614;13.830;2022-12-13T05:02:36;22.90;;;14.10;;
7213;SDS011;3648;50.614;13.830;2022-12-13T05:05:03;24.33;;;13.17;;
7213;SDS011;3648;50.614;13.830;2022-12-13T05:07:30;19.90;;;11.70;;
7213;SDS011;3648;50.614;13.830;2022-12-13T05:09:57;22.77;;;13.57;;
7213;SDS011;3648;50.614;13.830;2022-12-13T05:12:24;21.80;;;12.10;;
7213;SDS011;3648;50.614;13.830;2022-12-13T05:14:51;22.03;;;12.57;;
7213;SDS011;3648;50.614;13.830;2022-12-13T05:17:19;19.97;;;11.67;;
7213;SDS011;3648;50.614;13.830;2022-12-13T05:19:46;18.40;;;12.53;;
7213;SDS011;3648;50.614;13.830;2022-12-13T05:22:13;22.53;;;12.20;;
7213;SDS011;3648;50.614;13.830;2022-12-13T05:24:41;19.23;;;12.33;;
7213;SDS011;3648;50.614;13.830;2022-12-13T05:27:09;20.23;;;11.73;;
7213;SDS011;3648;50.614;13.830;2022-12-13T05:29:36;21.90;;;11.60;;
7213;SDS011;3648;50.614;13.830;2022-12-13T05:32:04;22.37;;;12.80;;
7213;SDS011;3648;50.614;13.830;2022-12-13T05:34:32;19.30;;;12.47;;
7213;SDS011;3648;50.614;13.830;2022-12-13T05:37:00;26.70;;;14.00;;
7213;SDS011;3648;50.614;13.830;2022-12-13T05:39:27;20.97;;;12.63;;
7213;SDS011;3648;50.614;13.830;2022-12-13T05:41:54;20.63;;;12.03;;
7213;SDS011;3648;50.614;13.830;2022-12-13T05:44:23;18.57;;;11.97;;
7213;SDS011;3648;50.614;13.830;2022-12-13T05:46:50;21.53;;;11.80;;
7213;SDS011;3648;50.614;13.830;2022-12-13T05:49:17;19.00;;;12.27;;
7213;SDS011;3648;50.614;13.830;2022-12-13T05:51:45;24.23;;;12.17;;
7213;SDS011;3648;50.614;13.830;2022-12-13T05:54:12;16.73;;;10.87;;
7213;SDS011;3648;50.614;13.830;2022-12-13T05:56:39;19.10;;;12.83;;
7213;SDS011;3648;50.614;13.830;2022-12-13T05:59:07;19.37;;;12.87;;
7213;SDS011;3648;50.614;13.830;2022-12-13T06:01:34;16.97;;;12.00;;
7213;SDS011;3648;50.614;13.830;2022-12-13T06:04:01;16.10;;;11.47;;
7213;SDS011;3648;50.614;13.830;2022-12-13T06:06:28;17.60;;;10.80;;
7213;SDS011;3648;50.614;13.830;2022-12-13T06:08:57;14.90;;;11.50;;
7213;SDS011;3648;50.614;13.830;2022-12-13T06:11:24;18.20;;;10.67;;
7213;SDS011;3648;50.614;13.830;2022-12-13T06:13:52;13.90;;;9.67;;
7213;SDS011;3648;50.614;13.830;2022-12-13T06:16:19;16.43;;;10.77;;
7213;SDS011;3648;50.614;13.830;2022-12-13T06:18:46;16.67;;;10.60;;
7213;SDS011;3648;50.614;13.830;2022-12-13T06:21:13;13.43;;;9.53;;
7213;SDS011;3648;50.614;13.830;2022-12-13T06:23:40;15.17;;;9.93;;
7213;SDS011;3648;50.614;13.830;2022-12-13T06:26:08;15.73;;;10.37;;
7213;SDS011;3648;50.614;13.830;2022-12-13T06:28:35;14.97;;;9.40;;
7213;SDS011;3648;50.614;13.830;2022-12-13T06:31:02;24.93;;;15.80;;
7213;SDS011;3648;50.614;13.830;2022-12-13T06:33:30;22.30;;;15.50;;
7213;SDS011;3648;50.614;13.830;2022-12-13T06:35:59;26.27;;;16.13;;
7213;SDS011;3648;50.614;13.830;2022-12-13T06:38:26;22.93;;;14.90;;
7213;SDS011;3648;50.614;13.830;2022-12-13T06:40:53;19.13;;;12.70;;
7213;SDS011;3648;50.614;13.830;2022-12-13T06:43:22;17.33;;;11.90;;
7213;SDS011;3648;50.614;13.830;2022-12-13T06:45:49;17.23;;;12.63;;
7213;SDS011;3648;50.614;13.830;2022-12-13T06:48:16;19.23;;;13.47;;
7213;SDS011;3648;50.614;13.830;2022-12-13T06:50:43;25.43;;;15.00;;
7213;SDS011;3648;50.614;13.830;2022-12-13T06:53:10;28.43;;;14.87;;
7213;SDS011;3648;50.614;13.830;2022-12-13T06:55:37;26.47;;;16.13;;
7213;SDS011;3648;50.614;13.830;2022-12-13T06:58:04;26.20;;;15.60;;
7213;SDS011;3648;50.614;13.830;2022-12-13T07:00:32;20.03;;;13.90;;
7213;SDS011;3648;50.614;13.830;2022-12-13T07:02:59;24.23;;;15.07;;
7213;SDS011;3648;50.614;13.830;2022-12-13T07:05:26;23.97;;;14.03;;
7213;SDS011;3648;50.614;13.830;2022-12-13T07:07:53;24.73;;;12.93;;
7213;SDS011;3648;50.614;13.830;2022-12-13T07:10:20;22.30;;;13.50;;
7213;SDS011;3648;50.614;13.830;2022-12-13T07:12:47;17.37;;;11.13;;
7213;SDS011;3648;50.614;13.830;2022-12-13T07:15:14;18.47;;;11.00;;
7213;SDS011;3648;50.614;13.830;2022-12-13T07:17:43;16.77;;;9.93;;
7213;SDS011;3648;50.614;13.830;2022-12-13T07:20:10;15.77;;;9.70;;
7213;SDS011;3648;50.614;13.830;2022-12-13T07:22:39;18.40;;;9.53;;
7213;SDS011;3648;50.614;13.830;2022-12-13T07:25:07;19.40;;;10.40;;
7213;SDS011;3648;50.614;13.830;2022-12-13T07:27:34;15.27;;;9.20;;
7213;SDS011;3648;50.614;13.830;2022-12-13T07:30:01;20.00;;;11.63;;
7213;SDS011;3648;50.614;13.830;2022-12-13T07:32:29;16.80;;;11.30;;
7213;SDS011;3648;50.614;13.830;2022-12-13T07:34:57;20.83;;;10.93;;
7213;SDS011;3648;50.614;13.830;2022-12-13T07:37:24;21.50;;;12.97;;
7213;SDS011;3648;50.614;13.830;2022-12-13T07:39:51;21.43;;;13.60;;
7213;SDS011;3648;50.614;13.830;2022-12-13T07:42:18;18.60;;;11.77;;
7213;SDS011;3648;50.614;13.830;2022-12-13T07:44:46;19.20;;;11.60;;
7213;SDS011;3648;50.614;13.830;2022-12-13T07:47:13;16.17;;;11.23;;
7213;SDS011;3648;50.614;13.830;2022-12-13T07:49:40;16.73;;;10.47;;
7213;SDS011;3648;50.614;13.830;2022-12-13T07:52:10;18.23;;;10.77;;
7213;SDS011;3648;50.614;13.830;2022-12-13T07:54:37;15.97;;;11.17;;
7213;SDS011;3648;50.614;13.830;2022-12-13T07:57:04;16.60;;;10.70;;
7213;SDS011;3648;50.614;13.830;2022-12-13T07:59:31;18.30;;;11.03;;
7213;SDS011;3648;50.614;13.830;2022-12-13T08:01:58;16.10;;;10.83;;
7213;SDS011;3648;50.614;13.830;2022-12-13T08:04:25;17.73;;;11.10;;
7213;SDS011;3648;50.614;13.830;2022-12-13T08:06:53;23.20;;;13.37;;
7213;SDS011;3648;50.614;13.830;2022-12-13T08:09:22;41.77;;;22.60;;
7213;SDS011;3648;50.614;13.830;2022-12-13T08:11:49;42.93;;;22.00;;
7213;SDS011;3648;50.614;13.830;2022-12-13T08:14:16;54.47;;;26.50;;
7213;SDS011;3648;50.614;13.830;2022-12-13T08:16:43;43.07;;;24.20;;
7213;SDS011;3648;50.614;13.830;2022-12-13T08:19:10;32.00;;;18.77;;
7213;SDS011;3648;50.614;13.830;2022-12-13T08:21:37;25.33;;;16.67;;
7213;SDS011;3648;50.614;13.830;2022-12-13T08:24:06;29.20;;;16.83;;
7213;SDS011;3648;50.614;13.830;2022-12-13T08:26:34;28.23;;;17.23;;
7213;SDS011;3648;50.614;13.830;2022-12-13T08:29:01;30.70;;;17.87;;
7213;SDS011;3648;50.614;13.830;2022-12-13T08:31:29;25.47;;;16.60;;
7213;SDS011;3648;50.614;13.830;2022-12-13T08:33:56;28.50;;;16.70;;
7213;SDS011;3648;50.614;13.830;2022-12-13T08:36:23;23.57;;;14.80;;
7213;SDS011;3648;50.614;13.830;2022-12-13T08:38:53;19.33;;;13.07;;
7213;SDS011;3648;50.614;13.830;2022-12-13T08:41:21;18.50;;;12.03;;
7213;SDS011;3648;50.614;13.830;2022-12-13T08:43:49;21.33;;;12.87;;
7213;SDS011;3648;50.614;13.830;2022-12-13T08:46:16;19.47;;;12.30;;
7213;SDS011;3648;50.614;13.830;2022-12-13T08:48:43;20.30;;;13.77;;
7213;SDS011;3648;50.614;13.830;2022-12-13T08:51:11;22.20;;;13.53;;
7213;SDS011;3648;50.614;13.830;2022-12-13T08:53:41;20.67;;;11.37;;
7213;SDS011;3648;50.614;13.830;2022-12-13T08:56:10;19.50;;;11.77;;
7213;SDS011;3648;50.614;13.830;2022-12-13T08:58:38;18.43;;;12.10;;
7213;SDS011;3648;50.614;13.830;2022-12-13T09:01:06;19.57;;;12.00;;
7213;SDS011;3648;50.614;13.830;2022-12-13T09:03:35;18.50;;;11.90;;
7213;SDS011;3648;50.614;13.830;2022-12-13T09:06:06;23.63;;;14.00;;
7213;SDS011;3648;50.614;13.830;2022-12-13T09:08:34;21.73;;;13.67;;
7213;SDS011;3648;50.614;13.830;2022-12-13T09:11:02;21.43;;;12.23;;
7213;SDS011;3648;50.614;13.830;2022-12-13T09:13:31;17.50;;;11.63;;
7213;SDS011;3648;50.614;13.830;2022-12-13T09:16:02;17.83;;;12.03;;
7213;SDS011;3648;50.614;13.830;2022-12-13T09:18:31;19.53;;;12.57;;
7213;SDS011;3648;50.614;13.830;2022-12-13T09:20:58;27.50;;;16.00;;
7213;SDS011;3648;50.614;13.830;2022-12-13T09:23:26;19.50;;;12.23;;
7213;SDS011;3648;50.614;13.830;2022-12-13T09:25:53;29.03;;;15.37;;
7213;SDS011;3648;50.614;13.830;2022-12-13T09:28:21;32.90;;;17.73;;
7213;SDS011;3648;50.614;13.830;2022-12-13T09:30:48;28.90;;;17.40;;
7213;SDS011;3648;50.614;13.830;2022-12-13T09:33:16;29.87;;;18.30;;
7213;SDS011;3648;50.614;13.830;2022-12-13T09:35:45;35.50;;;20.30;;
7213;SDS011;3648;50.614;13.830;2022-12-13T09:38:12;45.67;;;23.97;;
7213;SDS011;3648;50.614;13.830;2022-12-13T09:40:40;35.17;;;20.67;;
7213;SDS011;3648;50.614;13.830;2022-12-13T09:43:11;37.27;;;21.67;;
7213;SDS011;3648;50.614;13.830;2022-12-13T09:45:47;38.93;;;21.97;;
7213;SDS011;3648;50.614;13.830;2022-12-13T09:48:15;36.67;;;21.70;;
7213;SDS011;3648;50.614;13.830;2022-12-13T09:50:45;30.60;;;18.90;;
7213;SDS011;3648;50.614;13.830;2022-12-13T09:53:14;31.53;;;19.87;;
7213;SDS011;3648;50.614;13.830;2022-12-13T09:55:44;32.23;;;21.90;;
7213;SDS011;3648;50.614;13.830;2022-12-13T09:58:13;26.07;;;17.67;;
7213;SDS011;3648;50.614;13.830;2022-12-13T10:00:45;25.07;;;16.07;;
7213;SDS011;3648;50.614;13.830;2022-12-13T10:03:14;26.43;;;16.17;;
7213;SDS011;3648;50.614;13.830;2022-12-13T10:05:43;21.67;;;14.83;;
7213;SDS011;3648;50.614;13.830;2022-12-13T10:08:19;19.23;;;13.47;;
7213;SDS011;3648;50.614;13.830;2022-12-13T10:10:48;20.60;;;12.53;;
7213;SDS011;3648;50.614;13.830;2022-12-13T10:13:18;20.43;;;13.03;;
7213;SDS011;3648;50.614;13.830;2022-12-13T10:15:49;22.00;;;13.83;;
7213;SDS011;3648;50.614;13.830;2022-12-13T10:18:22;23.23;;;13.37;;
7213;SDS011;3648;50.614;13.830;2022-12-13T10:20:53;27.50;;;18.17;;
7213;SDS011;3648;50.614;13.830;2022-12-13T10:23:21;27.43;;;17.20;;
7213;SDS011;3648;50.614;13.830;2022-12-13T10:25:49;30.40;;;18.13;;
7213;SDS011;3648;50.614;13.830;2022-12-13T10:28:24;28.13;;;16.07;;
7213;SDS011;3648;50.614;13.830;2022-12-13T10:30:53;25.90;;;15.50;;
7213;SDS011;3648;50.614;13.830;2022-12-13T10:33:22;22.63;;;13.50;;
7213;SDS011;3648;50.614;13.830;2022-12-13T10:36:06;21.90;;;12.23;;
7213;SDS011;3648;50.614;13.830;2022-12-13T10:38:37;16.83;;;11.50;;
7213;SDS011;3648;50.614;13.830;2022-12-13T10:41:25;14.80;;;10.07;;
7213;SDS011;3648;50.614;13.830;2022-12-13T10:44:06;20.77;;;11.80;;
7213;SDS011;3648;50.614;13.830;2022-12-13T10:46:35;19.77;;;11.67;;
7213;SDS011;3648;50.614;13.830;2022-12-13T10:49:03;15.23;;;10.10;;
7213;SDS011;3648;50.614;13.830;2022-12-13T10:51:43;16.17;;;10.50;;
7213;SDS011;3648;50.614;13.830;2022-12-13T10:54:14;15.97;;;10.13;;
7213;SDS011;3648;50.614;13.830;2022-12-13T10:56:44;15.80;;;10.40;;
7213;SDS011;3648;50.614;13.830;2022-12-13T11:02:00;15.83;;;10.43;;
7213;SDS011;3648;50.614;13.830;2022-12-13T11:04:45;10.57;;;8.50;;
7213;SDS011;3648;50.614;13.830;2022-12-13T11:07:21;15.47;;;9.50;;
7213;SDS011;3648;50.614;13.830;2022-12-13T11:09:50;11.57;;;8.90;;
7213;SDS011;3648;50.614;13.830;2022-12-13T11:12:18;9.50;;;7.90;;
7213;SDS011;3648;50.614;13.830;2022-12-13T11:14:52;15.30;;;10.00;;
7213;SDS011;3648;50.614;13.830;2022-12-13T11:17:25;15.13;;;10.20;;
7213;SDS011;3648;50.614;13.830;2022-12-13T11:19:56;12.93;;;8.80;;
7213;SDS011;3648;50.614;13.830;2022-12-13T11:22:28;12.57;;;8.43;;
7213;SDS011;3648;50.614;13.830;2022-12-13T11:24:58;11.83;;;8.80;;
7213;SDS011;3648;50.614;13.830;2022-12-13T11:28:01;14.00;;;8.70;;
7213;SDS011;3648;50.614;13.830;2022-12-13T11:30:36;12.00;;;9.30;;
7213;SDS011;3648;50.614;13.830;2022-12-13T11:33:12;12.40;;;8.80;;
7213;SDS011;3648;50.614;13.830;2022-12-13T11:35:50;14.13;;;9.87;;
7213;SDS011;3648;50.614;13.830;2022-12-13T11:38:30;18.00;;;10.03;;
7213;SDS011;3648;50.614;13.830;2022-12-13T11:41:00;18.77;;;11.50;;
7213;SDS011;3648;50.614;13.830;2022-12-13T11:43:38;14.60;;;10.17;;
7213;SDS011;3648;50.614;13.830;2022-12-13T11:46:12;15.97;;;10.10;;
7213;SDS011;3648;50.614;13.830;2022-12-13T11:48:49;15.03;;;10.00;;
7213;SDS011;3648;50.614;13.830;2022-12-13T11:51:20;15.53;;;8.90;;
7213;SDS011;3648;50.614;13.830;2022-12-13T11:53:55;14.17;;;9.80;;
7213;SDS011;3648;50.614;13.830;2022-12-13T11:56:27;13.90;;;9.57;;
7213;SDS011;3648;50.614;13.830;2022-12-13T11:59:00;13.80;;;10.57;;
7213;SDS011;3648;50.614;13.830;2022-12-13T12:01:34;23.37;;;13.10;;
7213;SDS011;3648;50.614;13.830;2022-12-13T12:04:11;17.70;;;10.60;;
7213;SDS011;3648;50.614;13.830;2022-12-13T12:06:45;14.37;;;9.67;;
7213;SDS011;3648;50.614;13.830;2022-12-13T12:09:17;14.70;;;9.27;;
7213;SDS011;3648;50.614;13.830;2022-12-13T12:11:50;14.70;;;10.23;;
7213;SDS011;3648;50.614;13.830;2022-12-13T12:14:21;14.03;;;9.90;;
7213;SDS011;3648;50.614;13.830;2022-12-13T12:16:55;14.67;;;8.90;;
7213;SDS011;3648;50.614;13.830;2022-12-13T12:19:24;12.97;;;9.27;;
7213;SDS011;3648;50.614;13.830;2022-12-13T12:21:58;16.87;;;9.93;;
7213;SDS011;3648;50.614;13.830;2022-12-13T12:24:41;19.07;;;12.17;;
7213;SDS011;3648;50.614;13.830;2022-12-13T12:27:19;15.63;;;9.83;;
7213;SDS011;3648;50.614;13.830;2022-12-13T12:30:00;13.10;;;10.00;;
7213;SDS011;3648;50.614;13.830;2022-12-13T12:32:35;13.73;;;9.23;;
7213;SDS011;3648;50.614;13.830;2022-12-13T12:35:17;14.20;;;9.20;;
7213;SDS011;3648;50.614;13.830;2022-12-13T12:37:57;16.73;;;10.60;;
7213;SDS011;3648;50.614;13.830;2022-12-13T12:40:42;13.97;;;9.53;;
7213;SDS011;3648;50.614;13.830;2022-12-13T12:43:28;17.43;;;11.13;;
7213;SDS011;3648;50.614;13.830;2022-12-13T12:46:01;19.43;;;10.90;;
7213;SDS011;3648;50.614;13.830;2022-12-13T12:51:50;16.40;;;10.33;;
7213;SDS011;3648;50.614;13.830;2022-12-13T12:54:30;13.67;;;9.77;;
7213;SDS011;3648;50.614;13.830;2022-12-13T12:57:10;17.53;;;11.60;;
7213;SDS011;3648;50.614;13.830;2022-12-13T12:59:45;18.33;;;10.60;;
7213;SDS011;3648;50.614;13.830;2022-12-13T13:02:24;17.73;;;10.60;;
7213;SDS011;3648;50.614;13.830;2022-12-13T13:04:58;16.27;;;10.07;;
7213;SDS011;3648;50.614;13.830;2022-12-13T13:07:30;14.03;;;9.17;;
7213;SDS011;3648;50.614;13.830;2022-12-13T13:10:01;15.20;;;8.77;;
7213;SDS011;3648;50.614;13.830;2022-12-13T13:12:32;11.97;;;8.13;;
7213;SDS011;3648;50.614;13.830;2022-12-13T13:18:06;11.80;;;8.03;;
7213;SDS011;3648;50.614;13.830;2022-12-13T13:21:26;11.33;;;7.33;;
7213;SDS011;3648;50.614;13.830;2022-12-13T13:26:49;11.47;;;8.53;;
7213;SDS011;3648;50.614;13.830;2022-12-13T13:44:33;16.17;;;9.57;;
7213;SDS011;3648;50.614;13.830;2022-12-13T13:50:27;10.80;;;7.77;;
7213;SDS011;3648;50.614;13.830;2022-12-13T13:53:33;8.87;;;7.30;;
7213;SDS011;3648;50.614;13.830;2022-12-13T14:05:31;13.40;;;6.60;;
7213;SDS011;3648;50.614;13.830;2022-12-13T14:08:38;10.70;;;7.77;;
7213;SDS011;3648;50.614;13.830;2022-12-13T14:11:16;13.97;;;7.80;;
7213;SDS011;3648;50.614;13.830;2022-12-13T14:23:37;13.33;;;8.37;;
7213;SDS011;3648;50.614;13.830;2022-12-13T14:26:18;10.73;;;8.30;;
7213;SDS011;3648;50.614;13.830;2022-12-13T14:29:10;10.93;;;8.07;;
7213;SDS011;3648;50.614;13.830;2022-12-13T14:31:40;11.13;;;6.80;;
7213;SDS011;3648;50.614;13.830;2022-12-13T14:34:16;9.77;;;7.03;;
7213;SDS011;3648;50.614;13.830;2022-12-13T14:36:53;10.00;;;6.93;;
7213;SDS011;3648;50.614;13.830;2022-12-13T14:39:27;10.17;;;7.10;;
7213;SDS011;3648;50.614;13.830;2022-12-13T14:41:56;10.13;;;6.73;;
7213;SDS011;3648;50.614;13.830;2022-12-13T14:44:25;12.60;;;6.80;;
7213;SDS011;3648;50.614;13.830;2022-12-13T14:46:54;8.80;;;6.60;;
7213;SDS011;3648;50.614;13.830;2022-12-13T14:49:24;11.67;;;6.93;;
7213;SDS011;3648;50.614;13.830;2022-12-13T14:51:55;10.43;;;6.97;;
7213;SDS011;3648;50.614;13.830;2022-12-13T14:54:28;11.50;;;6.90;;
7213;SDS011;3648;50.614;13.830;2022-12-13T14:56:58;14.47;;;8.00;;
7213;SDS011;3648;50.614;13.830;2022-12-13T14:59:26;11.40;;;8.60;;
7213;SDS011;3648;50.614;13.830;2022-12-13T15:01:54;12.17;;;8.63;;
7213;SDS011;3648;50.614;13.830;2022-12-13T15:04:25;13.10;;;9.53;;
7213;SDS011;3648;50.614;13.830;2022-12-13T15:06:56;15.10;;;10.53;;
7213;SDS011;3648;50.614;13.830;2022-12-13T15:09:29;16.57;;;10.53;;
7213;SDS011;3648;50.614;13.830;2022-12-13T15:11:59;19.50;;;11.33;;
7213;SDS011;3648;50.614;13.830;2022-12-13T15:14:27;21.57;;;14.33;;
7213;SDS011;3648;50.614;13.830;2022-12-13T15:16:55;18.53;;;13.00;;
7213;SDS011;3648;50.614;13.830;2022-12-13T15:19:23;25.83;;;14.70;;
7213;SDS011;3648;50.614;13.830;2022-12-13T15:21:53;23.70;;;15.60;;
7213;SDS011;3648;50.614;13.830;2022-12-13T15:24:22;27.90;;;14.87;;
7213;SDS011;3648;50.614;13.830;2022-12-13T15:26:54;21.63;;;14.87;;
7213;SDS011;3648;50.614;13.830;2022-12-13T15:29:24;21.63;;;14.83;;
7213;SDS011;3648;50.614;13.830;2022-12-13T15:31:53;24.30;;;15.10;;
7213;SDS011;3648;50.614;13.830;2022-12-13T15:34:22;25.77;;;16.80;;
7213;SDS011;3648;50.614;13.830;2022-12-13T15:37:02;21.13;;;14.50;;
7213;SDS011;3648;50.614;13.830;2022-12-13T15:42:42;24.97;;;15.43;;
7213;SDS011;3648;50.614;13.830;2022-12-13T15:45:16;23.93;;;15.63;;
7213;SDS011;3648;50.614;13.830;2022-12-13T15:47:46;32.73;;;22.00;;
7213;SDS011;3648;50.614;13.830;2022-12-13T15:50:28;34.70;;;21.80;;
7213;SDS011;3648;50.614;13.830;2022-12-13T15:52:58;32.90;;;21.93;;
7213;SDS011;3648;50.614;13.830;2022-12-13T15:55:31;32.17;;;21.30;;